Bluff Springs, Illinois
Current Conditions -  °F | °C
As of 1:15 AM on Sunday 23 Nov 2014 (Local Time) from KIJX Reporting Station
Clear Clear  
Wind Chill: 11°   Ceiling: Unl
Heat Index: 11°   Visibility: 10mi
Dew Point:   Wind: 9mph
Humidity: 87%   Direction: 170°S
Pressure: 29.8"   Gusts: NA
Location:  39.99°N, 90.35°W
Report Text: KIJX 230715Z AUTO 17008KT 10SM CLR 12/09 A2980 RMK AO2 T01150094
Loading
Personal Weather Stations






























Interactive Weather Map New forecast layout! Learn more

10-Day Weather Forecast

Advertisements
Track Severe Weather on mobile